Time;durP1;ratioP1;P1;durP2;ratioP2;P2;SDS_P1;SDS_P2;PMS_P1;PMS_P2;Temp;Humidity;BMP_temperature;BMP_pressure;BME280_temperature;BME280_humidity;BME280_pressure;Samples;Min_cycle;Max_cycle;Signal;HPM_P1;HPM_P2
2022/01/03 00:02:19;;;;;;;4.32;1.33;;;9.80;99.90;;;;;;12474618;28;20133;-39
2022/01/03 00:08:21;;;;;;;8.10;1.40;;;9.90;99.90;;;;;;12460241;28;20091;-37
2022/01/03 00:14:27;;;;;;;6.68;1.58;;;10.00;99.90;;;;;;12473533;28;20148;-37
2022/01/03 00:20:30;;;;;;;9.88;1.42;;;10.00;99.90;;;;;;12475655;28;20395;-37
2022/01/03 00:26:34;;;;;;;5.10;0.95;;;10.10;99.90;;;;;;12476799;28;20494;-39
2022/01/03 00:32:42;;;;;;;6.07;1.05;;;10.10;99.90;;;;;;12475134;28;20045;-39
2022/01/03 00:38:44;;;;;;;6.00;1.23;;;10.10;99.90;;;;;;12474373;28;20038;-37
2022/01/03 00:44:46;;;;;;;8.13;1.30;;;10.00;99.90;;;;;;12472287;28;20563;-36
2022/01/03 00:50:49;;;;;;;11.80;1.52;;;10.10;99.90;;;;;;12474107;28;20345;-37
2022/01/03 00:56:54;;;;;;;13.63;1.33;;;10.00;99.90;;;;;;12474548;28;20852;-37
2022/01/03 01:03:09;;;;;;;9.93;1.30;;;10.00;99.90;;;;;;12474448;28;20052;-37
2022/01/03 01:09:14;;;;;;;12.10;1.60;;;10.00;99.90;;;;;;12474282;28;20501;-39
2022/01/03 01:15:17;;;;;;;8.73;1.40;;;10.00;99.90;;;;;;12475287;28;20054;-37
2022/01/03 01:21:20;;;;;;;6.97;1.15;;;9.90;99.90;;;;;;12454846;28;20519;-37
2022/01/03 01:33:45;;;;;;;9.77;1.40;;;9.90;99.90;;;;;;12473736;28;20061;-37
2022/01/03 01:39:49;;;;;;;8.45;2.03;;;9.70;99.90;;;;;;12473524;28;20061;-39
2022/01/03 01:45:51;;;;;;;9.60;1.45;;;9.50;99.90;;;;;;12471979;28;20046;-39
2022/01/03 01:52:00;;;;;;;11.45;1.92;;;9.40;99.90;;;;;;12472855;28;20045;-37
2022/01/03 01:58:11;;;;;;;13.18;1.65;;;9.30;99.90;;;;;;12477633;28;20053;-36
2022/01/03 02:04:31;;;;;;;15.85;2.00;;;9.40;99.90;;;;;;12479890;28;20421;-37
2022/01/03 02:10:37;;;;;;;8.57;2.00;;;9.40;99.90;;;;;;12480267;28;20148;-37
2022/01/03 02:16:41;;;;;;;9.15;1.73;;;9.50;99.90;;;;;;12481118;28;20053;-37
2022/01/03 02:22:44;;;;;;;11.60;1.83;;;9.60;99.90;;;;;;12480270;28;20061;-39
2022/01/03 02:28:46;;;;;;;13.75;1.85;;;9.60;99.90;;;;;;12481276;28;20064;-37
2022/01/03 02:34:48;;;;;;;11.70;1.98;;;9.60;99.90;;;;;;12478969;28;20057;-39
2022/01/03 02:40:51;;;;;;;11.43;1.67;;;9.70;99.90;;;;;;12481489;28;20467;-38
2022/01/03 02:46:53;;;;;;;13.32;1.90;;;9.70;99.90;;;;;;12480743;28;20152;-39
2022/01/03 02:52:56;;;;;;;9.10;1.65;;;9.60;99.90;;;;;;12477717;28;20053;-37
2022/01/03 02:58:58;;;;;;;13.38;1.75;;;9.50;99.90;;;;;;12463727;28;20151;-37
2022/01/03 03:05:04;;;;;;;12.68;1.50;;;9.40;99.90;;;;;;12477709;28;20132;-36
2022/01/03 03:11:06;;;;;;;12.43;1.90;;;9.50;99.90;;;;;;12479410;28;20558;-39
2022/01/03 03:17:09;;;;;;;10.45;1.65;;;9.50;99.90;;;;;;12481350;28;20080;-37
2022/01/03 03:23:12;;;;;;;12.57;2.22;;;9.40;99.90;;;;;;12479256;28;20072;-36
2022/01/03 03:29:14;;;;;;;14.43;2.15;;;9.40;99.90;;;;;;12481678;28;20141;-37
2022/01/03 03:35:17;;;;;;;14.27;1.92;;;9.40;99.90;;;;;;12476308;28;20049;-39
2022/01/03 03:41:23;;;;;;;18.00;2.60;;;9.40;99.90;;;;;;12479575;28;20107;-39
2022/01/03 03:47:25;;;;;;;12.90;2.38;;;9.30;99.90;;;;;;12477287;28;20090;-40
2022/01/03 03:53:28;;;;;;;13.15;2.25;;;9.30;99.90;;;;;;12460404;28;20045;-37
2022/01/03 03:59:30;;;;;;;19.45;2.45;;;9.30;99.90;;;;;;12479041;28;20045;-37
2022/01/03 04:05:32;;;;;;;18.52;1.95;;;9.20;99.90;;;;;;12477169;28;20666;-38
2022/01/03 04:11:34;;;;;;;17.17;3.05;;;9.10;99.90;;;;;;12476309;28;20050;-39
2022/01/03 04:17:36;;;;;;;17.05;2.13;;;9.20;99.90;;;;;;12479163;28;20077;-37
2022/01/03 04:23:39;;;;;;;16.77;2.45;;;9.30;99.90;;;;;;12473556;28;20053;-39
2022/01/03 04:29:41;;;;;;;13.75;2.35;;;9.40;99.90;;;;;;12474968;28;20045;-37
2022/01/03 04:35:43;;;;;;;21.50;3.08;;;9.30;99.90;;;;;;12476555;28;20092;-39
2022/01/03 04:41:46;;;;;;;14.73;2.17;;;9.40;99.90;;;;;;12473051;28;20659;-38
2022/01/03 04:47:49;;;;;;;14.35;2.20;;;9.40;99.90;;;;;;12476493;28;20045;-37
2022/01/03 04:53:52;;;;;;;19.25;2.83;;;9.40;99.90;;;;;;12472666;28;20482;-38
2022/01/03 04:59:54;;;;;;;17.70;2.72;;;9.40;99.90;;;;;;12472921;28;20064;-37
2022/01/03 05:05:57;;;;;;;18.35;2.70;;;9.40;99.90;;;;;;12472900;28;20041;-38
2022/01/03 05:11:58;;;;;;;17.42;2.47;;;9.40;99.90;;;;;;12471165;28;20123;-37
2022/01/03 05:18:02;;;;;;;23.33;3.55;;;9.40;99.90;;;;;;12475280;28;20041;-37
2022/01/03 05:24:05;;;;;;;15.52;2.63;;;9.50;99.90;;;;;;12470471;28;20046;-37
2022/01/03 05:30:08;;;;;;;16.88;2.65;;;9.50;99.90;;;;;;12473746;28;20053;-39
2022/01/03 05:36:10;;;;;;;19.65;3.33;;;9.50;99.90;;;;;;12480847;28;20061;-37
2022/01/03 05:42:12;;;;;;;18.00;3.05;;;9.50;99.90;;;;;;12484089;28;20077;-39
2022/01/03 05:48:14;;;;;;;15.52;3.33;;;9.40;99.90;;;;;;12483469;28;20099;-37
2022/01/03 05:54:17;;;;;;;18.30;3.30;;;9.30;99.90;;;;;;12483055;28;20516;-39
2022/01/03 06:00:20;;;;;;;16.58;3.33;;;9.20;99.90;;;;;;12483473;28;20082;-37
2022/01/03 06:06:53;;;;;;;18.37;3.33;;;9.30;99.90;;;;;;12482692;28;20076;-39
2022/01/03 06:12:47;;;;;;;15.63;3.20;;;9.30;99.90;;;;;;12465078;28;20180;-39
2022/01/03 06:18:50;;;;;;;21.77;4.05;;;9.30;99.90;;;;;;12464602;28;20049;-37
2022/01/03 06:24:55;;;;;;;20.35;3.70;;;9.30;99.90;;;;;;12478515;28;20099;-39
2022/01/03 06:30:57;;;;;;;18.45;3.90;;;9.30;99.90;;;;;;12479144;28;20120;-40
2022/01/03 06:36:59;;;;;;;16.83;3.83;;;9.20;99.90;;;;;;12481396;28;20176;-37
2022/01/03 06:43:02;;;;;;;19.70;3.47;;;9.20;99.90;;;;;;12478477;28;20081;-37
2022/01/03 06:49:06;;;;;;;13.38;3.78;;;9.00;99.90;;;;;;12482287;28;20072;-39
2022/01/03 06:55:08;;;;;;;19.13;4.18;;;9.00;99.90;;;;;;12480896;28;20429;-39
2022/01/03 07:01:11;;;;;;;17.53;3.97;;;9.00;99.90;;;;;;12476285;28;20042;-37
2022/01/03 07:07:14;;;;;;;20.23;4.07;;;9.00;99.90;;;;;;12481506;28;20049;-39
2022/01/03 07:13:16;;;;;;;18.98;3.45;;;9.10;99.90;;;;;;12476148;28;20081;-39
2022/01/03 07:19:18;;;;;;;20.25;3.75;;;9.10;99.90;;;;;;12476982;28;20125;-36
2022/01/03 07:25:20;;;;;;;19.33;3.58;;;9.00;99.90;;;;;;12474992;28;20492;-37
2022/01/03 07:31:22;;;;;;;20.15;3.67;;;9.10;99.90;;;;;;12475945;28;20061;-39
2022/01/03 07:37:24;;;;;;;20.92;3.45;;;9.10;99.90;;;;;;12473480;28;20169;-37
2022/01/03 07:43:26;;;;;;;19.27;3.55;;;9.20;99.90;;;;;;12472402;28;20402;-38
2022/01/03 07:49:28;;;;;;;17.10;3.58;;;9.20;99.90;;;;;;12474567;28;20498;-37
2022/01/03 07:55:31;;;;;;;17.67;3.63;;;9.30;99.90;;;;;;12473352;28;20588;-37
2022/01/03 08:01:33;;;;;;;16.10;2.65;;;9.30;99.90;;;;;;12474522;28;20311;-39
2022/01/03 08:07:36;;;;;;;12.82;2.80;;;9.20;99.90;;;;;;12474131;28;20057;-38
2022/01/03 08:13:44;;;;;;;16.55;2.63;;;9.20;99.90;;;;;;12472426;28;20049;-37
2022/01/03 08:19:46;;;;;;;19.50;3.33;;;9.20;99.90;;;;;;12472115;28;20052;-37
2022/01/03 08:25:48;;;;;;;18.08;3.42;;;9.20;99.90;;;;;;12472175;28;20073;-37
2022/01/03 08:31:50;;;;;;;24.13;3.70;;;9.00;99.90;;;;;;12474976;28;20041;-37
2022/01/03 08:37:53;;;;;;;15.98;3.65;;;9.00;99.90;;;;;;12474274;28;20052;-37
2022/01/03 08:43:56;;;;;;;14.52;3.58;;;8.90;99.90;;;;;;12469120;28;20041;-37
2022/01/03 08:49:57;;;;;;;20.13;3.47;;;8.80;99.90;;;;;;12469221;28;20431;-37
2022/01/03 08:56:00;;;;;;;20.73;4.22;;;8.90;99.90;;;;;;12469607;28;20576;-37
2022/01/03 09:02:02;;;;;;;26.65;4.00;;;9.00;99.90;;;;;;12469652;28;20132;-40
2022/01/03 09:08:04;;;;;;;16.90;3.28;;;9.00;99.90;;;;;;12470934;28;20057;-38
2022/01/03 09:14:06;;;;;;;19.42;3.28;;;9.00;99.90;;;;;;12470366;28;20508;-39
2022/01/03 09:20:09;;;;;;;17.95;3.22;;;9.10;99.90;;;;;;12471528;28;20708;-39
2022/01/03 09:32:32;;;;;;;20.25;2.90;;;9.30;99.90;;;;;;12473271;28;20440;-37
2022/01/03 09:38:34;;;;;;;19.50;3.45;;;9.40;99.90;;;;;;12472171;28;20049;-40
2022/01/03 09:44:36;;;;;;;13.00;2.97;;;9.40;99.90;;;;;;12470723;28;20041;-36
2022/01/03 09:50:39;;;;;;;19.23;3.83;;;9.40;99.90;;;;;;12470722;28;22301;-39
2022/01/03 09:56:42;;;;;;;16.35;3.42;;;9.40;99.90;;;;;;12470209;28;20397;-37
2022/01/03 10:02:45;;;;;;;14.93;3.30;;;9.40;99.90;;;;;;12470970;28;20102;-39
2022/01/03 10:08:48;;;;;;;19.98;4.15;;;9.50;99.90;;;;;;12470795;28;20056;-38
2022/01/03 10:14:51;;;;;;;18.17;3.28;;;9.60;99.90;;;;;;12468368;28;20061;-39
2022/01/03 10:20:55;;;;;;;16.08;3.25;;;9.70;99.90;;;;;;12475988;28;20061;-39
2022/01/03 10:26:57;;;;;;;16.25;4.60;;;9.70;99.90;;;;;;12479948;28;20061;-37
2022/01/03 10:33:02;;;;;;;14.50;3.08;;;9.80;99.90;;;;;;12477590;28;20551;-37
2022/01/03 10:39:14;;;;;;;13.75;2.97;;;9.70;99.90;;;;;;12479346;28;20080;-36
2022/01/03 10:45:31;;;;;;;13.57;2.97;;;9.50;99.90;;;;;;12477862;28;20106;-37
2022/01/03 10:51:33;;;;;;;19.40;3.15;;;9.60;99.90;;;;;;12477866;28;20099;-36
2022/01/03 10:57:52;;;;;;;14.02;2.40;;;9.70;99.90;;;;;;12477139;28;20195;-39
2022/01/03 11:03:59;;;;;;;13.00;2.53;;;9.80;99.90;;;;;;12477460;28;20057;-39
2022/01/03 11:16:41;;;;;;;12.32;2.17;;;10.00;99.90;;;;;;12477950;28;20049;-37
2022/01/03 11:22:47;;;;;;;19.00;2.75;;;10.00;99.90;;;;;;12472766;28;20095;-39
2022/01/03 11:28:49;;;;;;;10.50;2.20;;;9.90;99.90;;;;;;12476758;28;20394;-39
2022/01/03 11:34:51;;;;;;;14.90;2.80;;;9.90;99.90;;;;;;12474824;28;20045;-37
2022/01/03 11:40:53;;;;;;;13.52;2.55;;;9.90;99.90;;;;;;12474739;28;20049;-37
2022/01/03 11:46:56;;;;;;;14.20;2.30;;;9.90;99.90;;;;;;12477509;28;20463;-37
2022/01/03 11:52:58;;;;;;;10.63;2.58;;;10.00;99.90;;;;;;12475660;28;20060;-39
2022/01/03 12:05:14;;;;;;;12.17;2.47;;;9.90;99.90;;;;;;12474480;28;20433;-37
2022/01/03 12:11:22;;;;;;;13.90;2.88;;;9.90;99.90;;;;;;12471873;28;20608;-37
2022/01/03 12:17:42;;;;;;;12.13;2.17;;;10.00;99.90;;;;;;12472330;28;20057;-38
2022/01/03 12:23:46;;;;;;;14.82;2.45;;;10.00;99.90;;;;;;12474876;28;20045;-39
2022/01/03 12:29:54;;;;;;;12.45;2.28;;;10.00;99.90;;;;;;12475500;28;20569;-39
2022/01/03 12:36:17;;;;;;;15.35;2.95;;;10.00;99.90;;;;;;12469619;28;20049;-40
2022/01/03 12:42:48;;;;;;;18.73;2.90;;;10.00;99.90;;;;;;12470059;28;20446;-37
2022/01/03 12:48:55;;;;;;;11.90;2.42;;;10.10;99.90;;;;;;12476160;28;20095;-37
2022/01/03 12:54:56;;;;;;;6.95;1.85;;;10.10;99.90;;;;;;12472228;28;20041;-37
2022/01/03 13:01:06;;;;;;;13.57;2.33;;;10.00;99.90;;;;;;12472620;28;20497;-37
2022/01/03 13:07:10;;;;;;;14.60;2.97;;;10.00;99.90;;;;;;12451855;28;20053;-37
2022/01/03 13:13:27;;;;;;;12.27;2.58;;;10.10;99.90;;;;;;12473638;28;20572;-39
2022/01/03 13:19:36;;;;;;;15.38;2.88;;;10.20;99.90;;;;;;12472543;28;20523;-39
2022/01/03 13:25:39;;;;;;;9.80;2.03;;;10.10;99.90;;;;;;12472083;28;20087;-39
2022/01/03 13:31:41;;;;;;;11.20;2.38;;;10.10;99.90;;;;;;12472318;28;20069;-38
2022/01/03 13:37:43;;;;;;;13.95;2.13;;;10.10;99.90;;;;;;12470324;28;20041;-37
2022/01/03 13:43:54;;;;;;;13.65;2.83;;;10.10;99.90;;;;;;12473631;28;20046;-37
2022/01/03 13:49:57;;;;;;;13.15;3.20;;;9.90;99.90;;;;;;12473508;28;20053;-37
2022/01/03 13:55:59;;;;;;;13.93;2.53;;;9.80;99.90;;;;;;12476371;28;20580;-39
2022/01/03 14:02:05;;;;;;;12.50;2.38;;;9.80;99.90;;;;;;12481824;28;20088;-37
2022/01/03 14:08:08;;;;;;;13.68;2.95;;;9.70;99.90;;;;;;12480057;28;20062;-37
2022/01/03 14:14:16;;;;;;;14.10;2.20;;;9.80;99.90;;;;;;12479660;28;20083;-38
2022/01/03 14:20:20;;;;;;;14.23;2.78;;;9.80;99.90;;;;;;12483101;28;20115;-37
2022/01/03 14:26:28;;;;;;;18.08;2.55;;;9.90;99.90;;;;;;12482259;28;20385;-40
2022/01/03 14:32:37;;;;;;;16.08;3.22;;;9.80;99.90;;;;;;12480700;28;20486;-39
2022/01/03 14:38:41;;;;;;;14.02;3.00;;;9.80;99.90;;;;;;12481150;28;20531;-37
2022/01/03 14:44:43;;;;;;;16.70;3.22;;;9.70;99.90;;;;;;12480752;28;20517;-39
2022/01/03 14:50:46;;;;;;;14.75;2.67;;;9.50;99.90;;;;;;12483393;28;20049;-37
2022/01/03 14:56:51;;;;;;;16.67;2.60;;;9.60;99.90;;;;;;12482384;28;20050;-37
2022/01/03 15:02:54;;;;;;;19.10;3.30;;;9.60;99.90;;;;;;12480956;28;20168;-37
2022/01/03 15:08:56;;;;;;;15.73;2.53;;;9.50;99.90;;;;;;12482902;28;20474;-39
2022/01/03 15:14:59;;;;;;;13.60;2.50;;;9.50;99.90;;;;;;12461564;28;20041;-39
2022/01/03 15:21:01;;;;;;;14.25;2.50;;;9.50;99.90;;;;;;12479752;28;20136;-40
2022/01/03 15:27:03;;;;;;;12.93;2.70;;;9.50;99.90;;;;;;12477569;28;20669;-37
2022/01/03 15:33:06;;;;;;;14.82;2.78;;;9.50;99.90;;;;;;12476174;28;20049;-39
2022/01/03 15:39:08;;;;;;;16.33;2.67;;;9.50;99.90;;;;;;12480098;28;20050;-39
2022/01/03 15:45:10;;;;;;;11.05;2.45;;;9.50;99.90;;;;;;12475965;28;20091;-40
2022/01/03 15:51:13;;;;;;;17.67;3.05;;;9.40;99.90;;;;;;12473424;28;20053;-37
2022/01/03 15:57:15;;;;;;;16.17;3.20;;;9.50;99.90;;;;;;12478033;28;20132;-37
2022/01/03 16:03:20;;;;;;;5.68;1.35;;;9.20;99.90;;;;;;12477672;28;20073;-39
2022/01/03 16:09:23;;;;;;;6.75;1.40;;;8.40;99.90;;;;;;12474840;28;20132;-36
2022/01/03 16:15:26;;;;;;;8.82;1.60;;;8.00;99.90;;;;;;12477155;28;20137;-37
2022/01/03 16:21:30;;;;;;;17.92;2.47;;;8.00;99.90;;;;;;12474914;28;20129;-37
2022/01/03 16:27:33;;;;;;;8.15;2.13;;;8.10;99.90;;;;;;12475660;28;20060;-39
2022/01/03 16:33:36;;;;;;;13.15;3.72;;;7.90;99.90;;;;;;12475604;28;20049;-37
2022/01/03 16:39:40;;;;;;;12.45;3.38;;;8.00;99.90;;;;;;12462629;28;20413;-37
2022/01/03 16:45:45;;;;;;;16.33;4.38;;;8.30;99.90;;;;;;12456754;28;20390;-40
2022/01/03 16:51:51;;;;;;;17.58;4.57;;;8.40;99.90;;;;;;12455165;28;20152;-37
2022/01/03 16:57:55;;;;;;;18.58;4.57;;;8.30;99.90;;;;;;12476458;28;20052;-39
2022/01/03 17:04:02;;;;;;;11.68;3.72;;;8.40;99.90;;;;;;12476685;28;20102;-38
2022/01/03 17:10:07;;;;;;;14.05;4.00;;;8.30;99.90;;;;;;12475783;28;20045;-40
2022/01/03 17:16:13;;;;;;;12.45;4.63;;;8.30;99.90;;;;;;12434325;28;20119;-41
2022/01/03 17:22:16;;;;;;;17.20;5.65;;;8.30;99.90;;;;;;12458123;28;20098;-37
2022/01/03 17:28:24;;;;;;;12.88;5.25;;;8.30;99.90;;;;;;12483540;28;20061;-39
2022/01/03 17:34:34;;;;;;;18.63;6.55;;;8.30;99.90;;;;;;12488385;28;20114;-38
2022/01/03 17:40:38;;;;;;;12.13;6.40;;;8.30;99.90;;;;;;12491568;28;20053;-39
2022/01/03 17:46:48;;;;;;;16.33;6.43;;;8.30;99.90;;;;;;12492781;28;20599;-37
2022/01/03 17:52:52;;;;;;;12.32;6.68;;;8.30;99.90;;;;;;12495146;28;20068;-37
2022/01/03 17:58:54;;;;;;;15.68;7.10;;;8.40;99.90;;;;;;12494268;28;20111;-39
2022/01/03 18:05:01;;;;;;;12.40;6.40;;;8.30;99.90;;;;;;12469180;28;20068;-37
2022/01/03 18:11:04;;;;;;;9.20;5.18;;;8.20;99.90;;;;;;12478098;28;20046;-39
2022/01/03 18:17:08;;;;;;;11.98;4.97;;;8.30;99.90;;;;;;12492423;28;20045;-37
2022/01/03 18:23:11;;;;;;;11.00;4.75;;;8.30;99.90;;;;;;12487159;28;20056;-41
2022/01/03 18:29:15;;;;;;;9.75;4.35;;;8.30;99.90;;;;;;12493860;28;20095;-39
2022/01/03 18:35:26;;;;;;;10.05;4.57;;;8.20;99.90;;;;;;12492250;28;20050;-37
2022/01/03 18:41:33;;;;;;;11.75;4.63;;;8.20;99.90;;;;;;12484699;28;20138;-38
2022/01/03 18:47:36;;;;;;;9.25;4.57;;;8.20;99.90;;;;;;12480334;28;20057;-37
2022/01/03 18:53:39;;;;;;;10.10;4.18;;;8.10;99.90;;;;;;12483422;28;20508;-37
2022/01/03 18:59:41;;;;;;;11.77;5.00;;;8.10;99.90;;;;;;12475142;28;20837;-39
2022/01/03 19:05:43;;;;;;;8.80;4.90;;;8.10;99.90;;;;;;12477568;28;20102;-37
2022/01/03 19:11:47;;;;;;;10.48;4.45;;;8.20;99.90;;;;;;12483516;28;20053;-37
2022/01/03 19:17:51;;;;;;;10.00;4.40;;;8.20;99.90;;;;;;12482469;28;20061;-39
2022/01/03 19:23:53;;;;;;;10.40;5.13;;;8.10;99.90;;;;;;12461551;28;20425;-39
2022/01/03 19:29:56;;;;;;;12.18;5.20;;;8.10;99.90;;;;;;12479641;28;20049;-40
2022/01/03 19:42:23;;;;;;;11.23;5.90;;;8.10;99.90;;;;;;12479655;28;20046;-39
2022/01/03 19:48:27;;;;;;;10.50;6.05;;;8.00;99.90;;;;;;12482662;28;20460;-39
2022/01/03 19:54:30;;;;;;;12.77;6.50;;;8.00;99.90;;;;;;12480101;28;20045;-37
2022/01/03 20:00:37;;;;;;;15.48;7.25;;;8.00;99.90;;;;;;12485668;28;20508;-38
2022/01/03 20:06:41;;;;;;;15.20;7.38;;;8.00;99.90;;;;;;12479343;28;20045;-36
2022/01/03 20:12:44;;;;;;;14.20;7.63;;;8.00;99.90;;;;;;12479834;28;20041;-40
2022/01/03 20:18:47;;;;;;;14.00;7.82;;;8.00;99.90;;;;;;12478416;28;20045;-39
2022/01/03 20:24:50;;;;;;;12.02;7.40;;;8.00;99.90;;;;;;12475489;28;20132;-38
2022/01/03 20:30:53;;;;;;;12.02;7.70;;;8.00;99.90;;;;;;12461905;28;20131;-37
2022/01/03 20:36:56;;;;;;;12.73;8.15;;;8.00;99.90;;;;;;12479647;28;20053;-36
2022/01/03 20:43:00;;;;;;;16.17;8.60;;;8.00;99.90;;;;;;12476768;28;20071;-37
2022/01/03 20:49:04;;;;;;;13.73;9.18;;;7.90;99.90;;;;;;12480898;28;20191;-38
2022/01/03 20:55:10;;;;;;;15.13;10.33;;;8.00;99.90;;;;;;12477584;28;20487;-40
2022/01/03 21:01:15;;;;;;;12.30;9.35;;;8.00;99.90;;;;;;12481956;28;20049;-39
2022/01/03 21:07:18;;;;;;;19.33;11.00;;;8.00;99.90;;;;;;12477754;28;20116;-40
2022/01/03 21:13:22;;;;;;;16.80;10.60;;;8.00;99.90;;;;;;12477401;28;20056;-37
2022/01/03 21:19:25;;;;;;;16.20;11.55;;;8.00;99.90;;;;;;12475821;28;20697;-37
2022/01/03 21:25:27;;;;;;;20.88;11.25;;;8.00;99.90;;;;;;12476455;28;20045;-37
2022/01/03 21:31:30;;;;;;;18.73;11.43;;;8.00;99.90;;;;;;12459131;28;20130;-37
2022/01/03 21:37:33;;;;;;;18.33;11.32;;;7.90;99.90;;;;;;12473790;28;20132;-37
2022/01/03 21:43:35;;;;;;;18.02;12.00;;;7.90;99.90;;;;;;12472760;28;20064;-39
2022/01/03 21:49:37;;;;;;;19.05;12.57;;;7.90;99.90;;;;;;12458440;28;20417;-39
2022/01/03 21:55:39;;;;;;;21.55;12.88;;;7.80;99.90;;;;;;12475326;28;20127;-37
2022/01/03 22:01:42;;;;;;;20.67;13.55;;;7.90;99.90;;;;;;12464606;28;20049;-37
2022/01/03 22:07:48;;;;;;;20.37;12.77;;;7.90;99.90;;;;;;12475011;28;20060;-39
2022/01/03 22:13:50;;;;;;;21.70;13.95;;;7.90;99.90;;;;;;12476765;28;20120;-39
2022/01/03 22:19:52;;;;;;;22.42;14.07;;;7.80;99.90;;;;;;12485886;28;20486;-37
2022/01/03 22:25:55;;;;;;;21.23;14.32;;;7.90;99.90;;;;;;12481426;28;20486;-38
2022/01/03 22:31:58;;;;;;;25.83;15.35;;;7.90;99.90;;;;;;12483277;28;20052;-37
2022/01/03 22:38:00;;;;;;;24.67;15.73;;;7.90;99.90;;;;;;12483571;28;20053;-39
2022/01/03 22:44:02;;;;;;;23.30;15.52;;;7.90;99.90;;;;;;12484053;28;20049;-38
2022/01/03 22:50:08;;;;;;;25.42;16.35;;;8.00;99.90;;;;;;12486164;28;20048;-39
2022/01/03 22:56:12;;;;;;;22.05;15.80;;;8.00;99.90;;;;;;12487371;28;20106;-40
2022/01/03 23:02:14;;;;;;;23.95;15.40;;;8.00;99.90;;;;;;12487220;28;20065;-39
2022/01/03 23:08:18;;;;;;;25.27;16.17;;;8.00;99.90;;;;;;12472724;28;20056;-37
2022/01/03 23:14:22;;;;;;;23.92;15.85;;;8.00;99.90;;;;;;12464572;28;20049;-41
2022/01/03 23:20:24;;;;;;;23.27;15.55;;;8.00;99.90;;;;;;12486124;28;20045;-37
2022/01/03 23:26:27;;;;;;;24.58;15.50;;;8.00;99.90;;;;;;12481606;28;20949;-39
2022/01/03 23:32:31;;;;;;;30.02;16.00;;;8.00;99.90;;;;;;12483557;28;20041;-39
2022/01/03 23:38:33;;;;;;;23.83;15.97;;;8.00;99.90;;;;;;12479936;28;20099;-37
2022/01/03 23:44:35;;;;;;;22.75;15.07;;;8.00;99.90;;;;;;12480568;28;20817;-39
2022/01/03 23:50:38;;;;;;;21.75;14.73;;;8.00;99.90;;;;;;12481894;28;20041;-39
2022/01/03 23:56:40;;;;;;;25.13;15.35;;;8.00;99.90;;;;;;12481967;28;20045;-37
